createdAt,value
2022-10-16T00:01:22.300Z,11.30
2022-10-16T00:03:49.314Z,11.30
2022-10-16T00:06:16.515Z,11.30
2022-10-16T00:08:43.755Z,11.30
2022-10-16T00:11:12.407Z,11.20
2022-10-16T00:13:40.236Z,11.20
2022-10-16T00:16:07.256Z,11.20
2022-10-16T00:18:34.397Z,11.20
2022-10-16T00:21:08.709Z,11.10
2022-10-16T00:23:35.533Z,11.10
2022-10-16T00:26:03.622Z,11.10
2022-10-16T00:28:30.589Z,11.10
2022-10-16T00:30:57.851Z,11.10
2022-10-16T00:33:24.486Z,11.00
2022-10-16T00:35:51.287Z,11.00
2022-10-16T00:38:18.004Z,11.00
2022-10-16T00:40:44.589Z,11.00
2022-10-16T00:43:15.775Z,10.90
2022-10-16T00:45:42.713Z,10.90
2022-10-16T00:48:12.978Z,10.90
2022-10-16T00:50:40.749Z,10.80
2022-10-16T00:53:07.466Z,10.80
2022-10-16T00:55:36.623Z,10.80
2022-10-16T00:58:05.544Z,10.80
2022-10-16T01:00:32.216Z,10.80
2022-10-16T01:02:59.932Z,10.80
2022-10-16T01:05:31.490Z,10.80
2022-10-16T01:08:04.291Z,10.80
2022-10-16T01:10:54.371Z,10.80
2022-10-16T01:13:47.735Z,10.80
2022-10-16T01:16:16.695Z,10.80
2022-10-16T01:19:06.559Z,10.80
2022-10-16T01:21:35.958Z,10.80
2022-10-16T01:24:21.403Z,10.80
2022-10-16T01:27:06.847Z,10.80
2022-10-16T01:29:54.578Z,10.80
2022-10-16T01:32:24.291Z,10.80
2022-10-16T01:34:53.114Z,10.80
2022-10-16T01:37:23.836Z,10.80
2022-10-16T01:39:51.994Z,10.80
2022-10-16T01:42:23.010Z,10.80
2022-10-16T01:44:50.446Z,10.70
2022-10-16T01:47:18.602Z,10.70
2022-10-16T01:49:45.937Z,10.70
2022-10-16T01:52:15.451Z,10.70
2022-10-16T01:54:43.576Z,10.70
2022-10-16T01:57:11.152Z,10.70
2022-10-16T01:59:39.556Z,10.70
2022-10-16T02:02:08.869Z,10.70
2022-10-16T02:04:37.807Z,10.70
2022-10-16T02:07:04.679Z,10.70
2022-10-16T02:09:33.387Z,10.70
2022-10-16T02:12:03.296Z,10.70
2022-10-16T02:14:29.974Z,10.70
2022-10-16T02:16:56.675Z,10.70
2022-10-16T02:19:23.377Z,10.70
2022-10-16T02:22:00.982Z,10.70
2022-10-16T02:24:27.552Z,10.70
2022-10-16T02:27:01.951Z,10.70
2022-10-16T02:29:28.755Z,10.70
2022-10-16T02:31:57.955Z,10.80
2022-10-16T02:34:25.793Z,10.80
2022-10-16T02:36:53.366Z,10.80
2022-10-16T02:39:20.808Z,10.80
2022-10-16T02:41:48.275Z,10.80
2022-10-16T02:44:14.926Z,10.80
2022-10-16T02:46:41.518Z,10.80
2022-10-16T02:49:08.128Z,10.90
2022-10-16T02:51:34.767Z,10.90
2022-10-16T02:54:01.403Z,10.90
2022-10-16T02:56:28.143Z,10.90
2022-10-16T02:58:54.777Z,10.90
2022-10-16T03:01:21.437Z,10.90
2022-10-16T03:03:48.315Z,11.00
2022-10-16T03:06:15.045Z,11.00
2022-10-16T03:08:41.651Z,11.00
2022-10-16T03:11:08.467Z,11.00
2022-10-16T03:13:35.108Z,10.90
2022-10-16T03:16:01.698Z,10.90
2022-10-16T03:18:28.275Z,10.90
2022-10-16T03:20:54.880Z,10.90
2022-10-16T03:23:21.533Z,10.90
2022-10-16T03:25:48.459Z,10.90
2022-10-16T03:28:15.247Z,10.90
2022-10-16T03:30:41.867Z,10.90
2022-10-16T03:33:08.459Z,10.90
2022-10-16T03:35:35.382Z,10.90
2022-10-16T03:38:02.010Z,10.90
2022-10-16T03:40:28.703Z,10.90
2022-10-16T03:42:58.595Z,10.90
2022-10-16T03:45:25.486Z,10.90
2022-10-16T03:47:52.056Z,10.90
2022-10-16T03:50:18.704Z,10.90
2022-10-16T03:52:45.315Z,11.00
2022-10-16T03:55:12.008Z,11.00
2022-10-16T03:57:38.686Z,11.10
2022-10-16T04:00:05.553Z,11.10
2022-10-16T04:02:32.212Z,11.10
2022-10-16T04:04:58.799Z,11.20
2022-10-16T04:07:25.616Z,11.30
2022-10-16T04:09:53.146Z,11.30
2022-10-16T04:12:19.756Z,11.30
2022-10-16T04:14:46.347Z,11.40
2022-10-16T04:17:12.930Z,11.40
2022-10-16T04:19:39.519Z,11.50
2022-10-16T04:22:06.115Z,11.60
2022-10-16T04:24:32.730Z,11.60
2022-10-16T04:26:59.471Z,11.60
2022-10-16T04:29:26.194Z,11.70
2022-10-16T04:31:52.872Z,11.70
2022-10-16T04:34:19.499Z,11.80
2022-10-16T04:36:48.213Z,11.80
2022-10-16T04:39:14.820Z,11.90
2022-10-16T04:41:41.456Z,11.90
2022-10-16T04:44:08.137Z,11.90
2022-10-16T04:46:34.922Z,11.90
2022-10-16T04:49:01.614Z,11.90
2022-10-16T04:51:28.707Z,11.90
2022-10-16T04:53:55.962Z,12.00
2022-10-16T04:56:22.864Z,12.00
2022-10-16T04:58:49.509Z,12.00
2022-10-16T05:01:16.268Z,12.00
2022-10-16T05:03:42.862Z,12.00
2022-10-16T05:06:09.495Z,12.00
2022-10-16T05:08:36.124Z,12.00
2022-10-16T05:11:02.903Z,12.00
2022-10-16T05:13:29.492Z,12.10
2022-10-16T05:15:56.104Z,12.10
2022-10-16T05:18:22.665Z,12.00
2022-10-16T05:20:49.286Z,12.10
2022-10-16T05:23:15.876Z,12.10
2022-10-16T05:25:42.495Z,12.10
2022-10-16T05:28:09.097Z,12.10
2022-10-16T05:30:38.006Z,12.10
2022-10-16T05:33:04.583Z,12.10
2022-10-16T05:35:31.406Z,12.10
2022-10-16T05:37:57.993Z,12.10
2022-10-16T05:40:24.702Z,12.10
2022-10-16T05:42:55.202Z,12.20
2022-10-16T05:45:21.794Z,12.10
2022-10-16T05:47:48.395Z,12.20
2022-10-16T05:50:15.135Z,12.20
2022-10-16T05:52:41.721Z,12.20
2022-10-16T05:55:08.568Z,12.20
2022-10-16T05:57:35.175Z,12.20
2022-10-16T06:00:01.906Z,12.20
2022-10-16T06:02:28.546Z,12.20
2022-10-16T06:04:55.187Z,12.20
2022-10-16T06:07:22.087Z,12.20
2022-10-16T06:09:49.482Z,12.20
2022-10-16T06:12:16.446Z,12.20
2022-10-16T06:17:09.764Z,12.40
2022-10-16T06:19:36.362Z,12.40
2022-10-16T06:22:03.668Z,12.40
2022-10-16T06:24:30.263Z,12.50
2022-10-16T06:26:56.881Z,12.50
2022-10-16T06:29:23.504Z,12.50
2022-10-16T06:31:50.114Z,12.60
2022-10-16T06:34:16.822Z,12.60
2022-10-16T06:36:44.387Z,12.70
2022-10-16T06:39:11.011Z,12.80
2022-10-16T06:41:37.708Z,12.80
2022-10-16T06:44:06.332Z,12.90
2022-10-16T06:46:33.066Z,12.90
2022-10-16T06:48:59.657Z,13.00
2022-10-16T06:51:26.420Z,13.10
2022-10-16T06:54:03.298Z,13.20
2022-10-16T06:56:32.260Z,13.20
2022-10-16T06:58:59.502Z,13.20
2022-10-16T07:01:26.408Z,13.30
2022-10-16T07:03:53.431Z,13.30
2022-10-16T07:06:21.723Z,13.40
2022-10-16T07:08:48.595Z,13.50
2022-10-16T07:11:16.403Z,13.60
2022-10-16T07:13:44.203Z,13.70
2022-10-16T07:16:10.797Z,13.80
2022-10-16T07:18:37.877Z,13.90
2022-10-16T07:21:14.668Z,14.00
2022-10-16T07:23:41.357Z,14.00
2022-10-16T07:26:10.492Z,14.10
2022-10-16T07:28:37.534Z,14.10
2022-10-16T07:31:05.574Z,14.30
2022-10-16T07:33:32.575Z,14.40
2022-10-16T07:35:59.295Z,14.60
2022-10-16T07:38:25.892Z,14.80
2022-10-16T07:41:03.102Z,14.90
2022-10-16T07:43:29.748Z,15.10
2022-10-16T07:45:58.215Z,15.30
2022-10-16T07:48:31.067Z,15.50
2022-10-16T07:50:58.621Z,15.80
2022-10-16T07:53:27.039Z,16.20
2022-10-16T07:55:53.741Z,16.50
2022-10-16T07:58:20.396Z,16.70
2022-10-16T08:00:46.980Z,16.80
2022-10-16T08:03:13.579Z,16.80
2022-10-16T08:05:40.183Z,16.80
2022-10-16T08:08:06.896Z,16.80
2022-10-16T08:10:33.538Z,16.70
2022-10-16T08:13:00.262Z,16.70
2022-10-16T08:15:26.945Z,16.80
2022-10-16T08:18:00.826Z,17.00
2022-10-16T08:20:27.847Z,17.00
2022-10-16T08:22:55.294Z,17.00
2022-10-16T08:25:25.107Z,17.10
2022-10-16T08:27:52.091Z,17.30
2022-10-16T08:30:19.595Z,17.40
2022-10-16T08:32:46.211Z,17.70
2022-10-16T08:35:13.359Z,18.20
2022-10-16T08:37:40.015Z,19.20
2022-10-16T08:40:07.650Z,20.90
2022-10-16T08:42:47.096Z,22.70
2022-10-16T08:45:16.877Z,24.50
2022-10-16T08:48:06.743Z,26.30
2022-10-16T08:50:36.671Z,27.90
2022-10-16T08:53:04.844Z,29.50
2022-10-16T08:55:35.169Z,30.80
2022-10-16T08:58:02.139Z,32.10
2022-10-16T09:00:29.112Z,33.30
2022-10-16T09:03:06.939Z,34.30
2022-10-16T09:05:52.502Z,35.20
2022-10-16T09:08:26.056Z,36.10
2022-10-16T09:11:06.145Z,36.70
2022-10-16T09:13:45.082Z,37.10
2022-10-16T09:16:18.387Z,37.40
2022-10-16T09:18:44.951Z,37.10
2022-10-16T09:21:17.723Z,36.40
2022-10-16T09:23:44.454Z,34.50
2022-10-16T09:26:13.343Z,32.40
2022-10-16T09:31:18.790Z,29.10
2022-10-16T09:33:46.463Z,27.90
2022-10-16T09:36:14.035Z,26.80
2022-10-16T09:38:40.851Z,26.10
2022-10-16T09:41:16.794Z,25.30
2022-10-16T09:43:49.186Z,24.80
2022-10-16T09:46:35.598Z,24.30
2022-10-16T09:49:04.027Z,23.90
2022-10-16T09:51:36.291Z,23.50
2022-10-16T09:54:08.905Z,23.40
2022-10-16T09:56:37.316Z,23.10
2022-10-16T09:59:09.856Z,23.00
2022-10-16T10:01:40.972Z,22.80
2022-10-16T10:04:08.159Z,22.70
2022-10-16T10:06:41.891Z,22.60
2022-10-16T10:09:25.290Z,22.50
2022-10-16T10:11:51.935Z,22.40
2022-10-16T10:14:24.535Z,22.30
2022-10-16T10:16:52.419Z,22.20
2022-10-16T10:19:20.608Z,22.20
2022-10-16T10:21:47.596Z,22.10
2022-10-16T10:24:15.111Z,22.10
2022-10-16T10:26:48.527Z,22.00
2022-10-16T10:29:15.241Z,22.00
2022-10-16T10:31:48.079Z,22.00
2022-10-16T10:34:17.712Z,22.00
2022-10-16T10:36:48.060Z,21.90
2022-10-16T10:39:23.265Z,21.90
2022-10-16T10:41:59.124Z,21.90
2022-10-16T10:44:28.948Z,21.90
2022-10-16T10:46:58.078Z,21.90
2022-10-16T10:49:45.415Z,21.90
2022-10-16T10:52:27.051Z,22.00
2022-10-16T10:55:10.086Z,22.00
2022-10-16T10:57:42.264Z,22.10
2022-10-16T11:00:12.048Z,22.10
2022-10-16T11:02:41.512Z,22.20
2022-10-16T11:05:16.767Z,22.50
2022-10-16T11:07:49.144Z,22.70
2022-10-16T11:10:19.703Z,23.00
2022-10-16T11:12:48.642Z,23.20
2022-10-16T11:15:20.806Z,23.30
2022-10-16T11:17:53.574Z,23.30
2022-10-16T11:20:26.459Z,23.20
2022-10-16T11:22:58.933Z,23.20
2022-10-16T11:25:27.811Z,23.20
2022-10-16T11:27:57.539Z,23.20
2022-10-16T11:30:28.169Z,23.20
2022-10-16T11:33:15.044Z,23.20
2022-10-16T11:35:48.489Z,23.10
2022-10-16T11:38:50.719Z,23.10
2022-10-16T11:41:23.391Z,23.00
2022-10-16T11:44:05.029Z,23.00
2022-10-16T11:46:33.577Z,22.90
2022-10-16T11:49:13.836Z,22.80
2022-10-16T11:51:46.247Z,22.80
2022-10-16T11:54:22.495Z,22.70
2022-10-16T11:56:51.139Z,22.60
2022-10-16T11:59:25.305Z,22.60
2022-10-16T12:01:56.074Z,22.60
2022-10-16T12:04:34.994Z,22.60
2022-10-16T12:07:08.147Z,22.60
2022-10-16T12:09:37.518Z,22.60
2022-10-16T12:12:04.243Z,22.60
2022-10-16T12:14:51.702Z,22.60
2022-10-16T12:17:28.179Z,22.60
2022-10-16T12:20:02.314Z,22.70
2022-10-16T12:22:32.731Z,22.60
2022-10-16T12:24:59.452Z,22.60
2022-10-16T12:27:33.052Z,22.60
2022-10-16T12:30:01.512Z,22.60
2022-10-16T12:32:46.320Z,22.60
2022-10-16T12:35:24.673Z,22.50
2022-10-16T12:37:51.791Z,22.50
2022-10-16T12:40:24.722Z,22.50
2022-10-16T12:42:51.446Z,22.50
2022-10-16T12:45:27.182Z,22.50
2022-10-16T12:47:55.131Z,22.50
2022-10-16T12:50:24.735Z,22.50
2022-10-16T12:52:51.323Z,22.50
2022-10-16T12:55:18.997Z,22.50
2022-10-16T12:58:04.443Z,22.50
2022-10-16T13:00:42.180Z,22.40
2022-10-16T13:03:24.491Z,22.40
2022-10-16T13:05:58.988Z,22.40
2022-10-16T13:08:28.457Z,22.40
2022-10-16T13:10:58.059Z,22.40
2022-10-16T13:13:33.935Z,22.40
2022-10-16T13:16:15.899Z,22.40
2022-10-16T13:18:42.466Z,22.40
2022-10-16T13:21:19.372Z,22.40
2022-10-16T13:24:03.362Z,22.30
2022-10-16T13:26:37.829Z,22.30
2022-10-16T13:29:05.007Z,22.30
2022-10-16T13:31:32.158Z,22.30
2022-10-16T13:34:00.207Z,22.30
2022-10-16T13:36:31.459Z,22.30
2022-10-16T13:39:04.843Z,22.30
2022-10-16T13:41:31.532Z,22.30
2022-10-16T13:43:58.423Z,22.40
2022-10-16T13:46:25.703Z,22.40
2022-10-16T13:48:59.217Z,22.40
2022-10-16T13:51:25.828Z,22.40
2022-10-16T13:53:52.609Z,22.30
2022-10-16T13:56:20.673Z,22.30
2022-10-16T13:58:48.188Z,22.30
2022-10-16T14:01:14.771Z,22.20
2022-10-16T14:03:42.356Z,22.20
2022-10-16T14:06:14.560Z,22.20
2022-10-16T14:08:43.381Z,22.20
2022-10-16T14:11:10.260Z,22.20
2022-10-16T14:13:39.975Z,22.10
2022-10-16T14:16:10.961Z,22.10
2022-10-16T14:18:39.603Z,22.10
2022-10-16T14:21:13.605Z,22.10
2022-10-16T14:23:40.675Z,22.20
2022-10-16T14:26:15.848Z,22.20
2022-10-16T14:28:43.549Z,22.20
2022-10-16T14:31:24.777Z,22.20
2022-10-16T14:33:51.480Z,22.20
2022-10-16T14:36:19.555Z,22.20
2022-10-16T14:38:54.723Z,22.20
2022-10-16T14:41:22.636Z,22.10
2022-10-16T14:43:52.490Z,22.10
2022-10-16T14:48:50.684Z,22.10
2022-10-16T14:51:18.508Z,22.10
2022-10-16T14:53:45.244Z,22.10
2022-10-16T14:56:22.355Z,22.00
2022-10-16T14:58:50.616Z,22.00
2022-10-16T15:01:17.531Z,21.90
2022-10-16T15:03:44.351Z,21.90
2022-10-16T15:06:14.864Z,21.80
2022-10-16T15:08:41.783Z,21.70
2022-10-16T15:11:16.016Z,21.60
2022-10-16T15:13:42.667Z,21.50
2022-10-16T15:16:11.938Z,21.40
2022-10-16T15:18:38.546Z,21.30
2022-10-16T15:21:05.553Z,21.20
2022-10-16T15:23:32.159Z,21.10
2022-10-16T15:25:58.934Z,21.00
2022-10-16T15:28:26.690Z,20.90
2022-10-16T15:30:54.410Z,20.80
2022-10-16T15:33:23.560Z,20.70
2022-10-16T15:35:51.143Z,20.50
2022-10-16T15:38:18.370Z,20.40
2022-10-16T15:40:45.349Z,20.30
2022-10-16T15:43:12.574Z,20.20
2022-10-16T15:45:39.243Z,20.10
2022-10-16T15:48:05.894Z,20.00
2022-10-16T15:50:33.158Z,19.90
2022-10-16T15:52:59.804Z,19.80
2022-10-16T15:55:26.619Z,19.80
2022-10-16T15:57:53.212Z,19.80
2022-10-16T16:00:24.879Z,19.80
2022-10-16T16:02:52.944Z,19.80
2022-10-16T16:05:20.142Z,19.80
2022-10-16T16:07:46.764Z,19.70
2022-10-16T16:10:14.047Z,19.70
2022-10-16T16:12:40.705Z,19.70
2022-10-16T16:15:07.982Z,19.60
2022-10-16T16:17:35.407Z,19.50
2022-10-16T16:20:02.159Z,19.40
2022-10-16T16:22:29.241Z,19.30
2022-10-16T16:24:56.102Z,19.20
2022-10-16T16:27:22.804Z,19.00
2022-10-16T16:29:49.432Z,18.90
2022-10-16T16:32:16.009Z,18.80
2022-10-16T16:34:42.677Z,18.70
2022-10-16T16:37:09.265Z,18.60
2022-10-16T16:39:35.900Z,18.40
2022-10-16T16:42:04.977Z,18.30
2022-10-16T16:44:31.786Z,18.10
2022-10-16T16:46:58.439Z,18.00
2022-10-16T16:49:25.064Z,17.90
2022-10-16T16:51:53.119Z,17.70
2022-10-16T16:54:19.827Z,17.60
2022-10-16T16:56:46.813Z,17.50
2022-10-16T16:59:14.748Z,17.40
2022-10-16T17:01:41.870Z,17.30
2022-10-16T17:04:08.995Z,17.20
2022-10-16T17:06:35.659Z,17.10
2022-10-16T17:09:03.724Z,17.00
2022-10-16T17:11:30.551Z,17.00
2022-10-16T17:13:58.238Z,16.90
2022-10-16T17:16:26.477Z,16.80
2022-10-16T17:18:54.085Z,16.80
2022-10-16T17:21:20.781Z,16.70
2022-10-16T17:23:47.405Z,16.60
2022-10-16T17:26:17.939Z,16.50
2022-10-16T17:28:44.717Z,16.50
2022-10-16T17:31:12.733Z,16.40
2022-10-16T17:33:39.362Z,16.40
2022-10-16T17:36:06.355Z,16.30
2022-10-16T17:38:33.017Z,16.20
2022-10-16T17:40:59.660Z,16.10
2022-10-16T17:43:26.311Z,16.10
2022-10-16T17:45:52.992Z,16.00
2022-10-16T17:48:19.580Z,15.90
2022-10-16T17:50:46.193Z,15.90
2022-10-16T17:53:12.783Z,15.80
2022-10-16T17:55:40.472Z,15.70
2022-10-16T17:58:07.320Z,15.60
2022-10-16T18:00:34.051Z,15.50
2022-10-16T18:03:00.652Z,15.40
2022-10-16T18:05:27.335Z,15.40
2022-10-16T18:07:53.941Z,15.30
2022-10-16T18:10:21.316Z,15.30
2022-10-16T18:12:48.028Z,15.20
2022-10-16T18:15:14.649Z,15.20
2022-10-16T18:17:41.323Z,15.10
2022-10-16T18:20:08.199Z,15.10
2022-10-16T18:22:38.170Z,15.00
2022-10-16T18:25:05.465Z,14.90
2022-10-16T18:27:32.360Z,14.90
2022-10-16T18:30:00.006Z,14.80
2022-10-16T18:32:27.483Z,14.70
2022-10-16T18:34:54.539Z,14.70
2022-10-16T18:37:21.536Z,14.60
2022-10-16T18:39:51.092Z,14.50
2022-10-16T18:42:18.081Z,14.50
2022-10-16T18:44:46.911Z,14.40
2022-10-16T18:47:15.701Z,14.30
2022-10-16T18:49:44.114Z,14.30
2022-10-16T18:52:10.690Z,14.30
2022-10-16T18:54:37.589Z,14.20
2022-10-16T18:57:04.463Z,14.20
2022-10-16T18:59:31.132Z,14.10
2022-10-16T19:01:58.099Z,14.10
2022-10-16T19:04:24.963Z,14.00
2022-10-16T19:06:53.895Z,13.90
2022-10-16T19:09:22.155Z,13.90
2022-10-16T19:11:49.141Z,13.80
2022-10-16T19:14:16.660Z,13.70
2022-10-16T19:16:43.616Z,13.70
2022-10-16T19:19:11.947Z,13.70
2022-10-16T19:21:41.629Z,13.60
2022-10-16T19:24:09.041Z,13.60
2022-10-16T19:26:38.112Z,13.50
2022-10-16T19:29:08.203Z,13.50
2022-10-16T19:31:34.849Z,13.40
2022-10-16T19:34:03.352Z,13.40
2022-10-16T19:36:37.348Z,13.40
2022-10-16T19:39:05.772Z,13.30
2022-10-16T19:41:32.547Z,13.20
2022-10-16T19:44:02.551Z,13.20
2022-10-16T19:46:29.962Z,13.20
2022-10-16T19:49:01.321Z,13.10
2022-10-16T19:51:28.751Z,13.10
2022-10-16T19:53:59.375Z,13.00
2022-10-16T19:56:26.587Z,13.00
2022-10-16T19:58:54.847Z,13.00
2022-10-16T20:01:22.330Z,12.90
2022-10-16T20:03:50.220Z,12.90
2022-10-16T20:06:17.304Z,12.90
2022-10-16T20:08:45.696Z,12.80
2022-10-16T20:11:13.414Z,12.80
2022-10-16T20:13:42.365Z,12.70
2022-10-16T20:16:09.896Z,12.70
2022-10-16T20:18:36.688Z,12.70
2022-10-16T20:21:08.486Z,12.60
2022-10-16T20:23:35.080Z,12.60
2022-10-16T20:26:04.056Z,12.50
2022-10-16T20:28:31.486Z,12.50
2022-10-16T20:30:58.287Z,12.50
2022-10-16T20:33:24.903Z,12.40
2022-10-16T20:35:51.617Z,12.40
2022-10-16T20:38:18.712Z,12.30
2022-10-16T20:40:46.393Z,12.30
2022-10-16T20:43:14.572Z,12.30
2022-10-16T20:45:41.360Z,12.30
2022-10-16T20:48:08.083Z,12.20
2022-10-16T20:50:34.792Z,12.20
2022-10-16T20:53:01.523Z,12.20
2022-10-16T20:55:28.227Z,12.10
2022-10-16T20:57:54.968Z,12.10
2022-10-16T21:00:21.796Z,12.10
2022-10-16T21:02:51.754Z,12.10
2022-10-16T21:05:18.918Z,12.10
2022-10-16T21:07:45.523Z,12.00
2022-10-16T21:10:12.359Z,12.00
2022-10-16T21:12:39.047Z,12.00
2022-10-16T21:15:20.495Z,11.90
2022-10-16T21:17:47.202Z,11.90
2022-10-16T21:20:13.838Z,11.90
2022-10-16T21:22:40.418Z,11.80
2022-10-16T21:25:07.220Z,11.80
2022-10-16T21:27:40.595Z,11.80
2022-10-16T21:30:08.236Z,11.70
2022-10-16T21:32:35.774Z,11.70
2022-10-16T21:35:02.395Z,11.70
2022-10-16T21:37:29.048Z,11.70
2022-10-16T21:39:56.282Z,11.60
2022-10-16T21:42:22.962Z,11.60
2022-10-16T21:44:49.611Z,11.60
2022-10-16T21:47:16.236Z,11.60
2022-10-16T21:49:42.854Z,11.60
2022-10-16T21:52:09.585Z,11.60
2022-10-16T21:54:36.185Z,11.60
2022-10-16T21:59:29.408Z,11.60
2022-10-16T22:01:56.752Z,11.50
2022-10-16T22:04:23.412Z,11.50
2022-10-16T22:06:50.079Z,11.50
2022-10-16T22:09:16.827Z,11.40
2022-10-16T22:11:44.273Z,11.40
2022-10-16T22:14:12.228Z,11.40
2022-10-16T22:16:38.997Z,11.40
2022-10-16T22:19:09.025Z,11.50
2022-10-16T22:21:37.210Z,11.40
2022-10-16T22:24:03.959Z,11.40
2022-10-16T22:26:30.702Z,11.40
2022-10-16T22:28:57.468Z,11.40
2022-10-16T22:31:24.176Z,11.30
2022-10-16T22:33:55.165Z,11.30
2022-10-16T22:36:21.884Z,11.30
2022-10-16T22:38:48.515Z,11.30
2022-10-16T22:41:15.395Z,11.30
2022-10-16T22:43:44.007Z,11.20
2022-10-16T22:46:15.262Z,11.20
2022-10-16T22:48:42.052Z,11.20
2022-10-16T22:51:09.518Z,11.20
2022-10-16T22:53:36.296Z,11.10
2022-10-16T22:56:03.404Z,11.10
2022-10-16T22:58:30.069Z,11.10
2022-10-16T23:03:23.488Z,11.10
2022-10-16T23:05:50.203Z,11.10
2022-10-16T23:08:17.064Z,11.10
2022-10-16T23:10:44.998Z,11.00
2022-10-16T23:13:12.189Z,11.00
2022-10-16T23:15:39.405Z,11.00
2022-10-16T23:18:06.119Z,11.00
2022-10-16T23:20:32.828Z,11.00
2022-10-16T23:22:59.455Z,11.00
2022-10-16T23:25:26.123Z,11.00
2022-10-16T23:27:55.875Z,11.00
2022-10-16T23:30:22.671Z,10.90
2022-10-16T23:32:49.808Z,10.90
2022-10-16T23:35:16.522Z,10.90
2022-10-16T23:37:43.181Z,10.90
2022-10-16T23:40:10.105Z,10.80
2022-10-16T23:42:36.756Z,10.80
2022-10-16T23:45:03.538Z,10.70
2022-10-16T23:47:30.379Z,10.70
2022-10-16T23:49:57.156Z,10.70
2022-10-16T23:52:23.764Z,10.70
2022-10-16T23:54:50.420Z,10.70
2022-10-16T23:57:17.039Z,10.60
2022-10-16T23:59:43.643Z,10.60
